createdAt,value
2018-11-04T00:01:30.811Z,42.43
2018-11-04T00:03:58.668Z,38.50
2018-11-04T00:06:26.513Z,38.33
2018-11-04T00:08:54.377Z,37.60
2018-11-04T00:11:22.221Z,36.23
2018-11-04T00:13:50.064Z,33.30
2018-11-04T00:16:19.007Z,35.90
2018-11-04T00:18:46.867Z,37.17
2018-11-04T00:21:14.705Z,34.60
2018-11-04T00:23:42.540Z,33.87
2018-11-04T00:26:10.392Z,38.00
2018-11-04T00:28:38.235Z,35.10
2018-11-04T00:31:06.147Z,34.73
2018-11-04T00:33:33.993Z,38.73
2018-11-04T00:36:01.829Z,35.90
2018-11-04T00:38:29.695Z,38.00
2018-11-04T00:40:57.532Z,38.57
2018-11-04T00:43:25.372Z,36.50
2018-11-04T00:45:53.219Z,34.17
2018-11-04T00:48:21.134Z,38.87
2018-11-04T00:50:48.987Z,40.63
2018-11-04T00:53:16.841Z,34.77
2018-11-04T00:55:55.831Z,36.67
2018-11-04T00:58:24.879Z,36.67
2018-11-04T01:00:52.716Z,36.13
2018-11-04T01:03:20.597Z,35.53
2018-11-04T01:05:48.440Z,40.13
2018-11-04T01:08:16.291Z,36.00
2018-11-04T01:10:44.123Z,35.37
2018-11-04T01:13:11.966Z,32.87
2018-11-04T01:15:39.812Z,36.87
2018-11-04T01:18:07.639Z,36.73
2018-11-04T01:20:35.524Z,37.37
2018-11-04T01:23:03.379Z,39.83
2018-11-04T01:25:31.220Z,32.70
2018-11-04T01:27:59.068Z,32.43
2018-11-04T01:30:27.796Z,32.60
2018-11-04T01:32:56.379Z,33.83
2018-11-04T01:35:25.027Z,33.83
2018-11-04T01:37:52.939Z,41.10
2018-11-04T01:40:20.799Z,33.63
2018-11-04T01:42:48.648Z,33.07
2018-11-04T01:45:16.479Z,34.53
2018-11-04T01:47:44.356Z,37.20
2018-11-04T01:50:13.659Z,34.57
2018-11-04T01:52:42.371Z,37.07
2018-11-04T01:55:11.627Z,29.20
2018-11-04T01:57:40.171Z,37.07
2018-11-04T02:00:14.712Z,29.03
2018-11-04T02:02:43.827Z,31.53
2018-11-04T02:05:12.679Z,27.67
2018-11-04T02:07:41.203Z,27.97
2018-11-04T02:10:10.799Z,31.87
2018-11-04T02:12:39.366Z,32.13
2018-11-04T02:15:08.107Z,35.33
2018-11-04T02:17:36.521Z,37.67
2018-11-04T02:20:04.983Z,54.00
2018-11-04T02:22:33.631Z,80.13
2018-11-04T02:25:02.687Z,82.63
2018-11-04T02:27:31.460Z,96.70
2018-11-04T02:29:59.884Z,83.67
2018-11-04T02:32:28.142Z,87.83
2018-11-04T02:34:56.395Z,82.03
2018-11-04T02:37:24.849Z,89.63
2018-11-04T02:39:53.494Z,66.10
2018-11-04T02:42:22.125Z,44.93
2018-11-04T02:44:50.528Z,53.33
2018-11-04T02:47:18.763Z,42.50
2018-11-04T02:49:47.012Z,36.57
2018-11-04T02:52:15.476Z,37.53
2018-11-04T02:54:44.124Z,29.90
2018-11-04T02:57:12.832Z,30.43
2018-11-04T02:59:41.163Z,28.03
2018-11-04T03:02:09.520Z,23.47
2018-11-04T03:04:37.857Z,26.53
2018-11-04T03:07:06.286Z,33.60
2018-11-04T03:09:34.547Z,26.43
2018-11-04T03:12:03.044Z,34.37
2018-11-04T03:14:31.736Z,27.40
2018-11-04T03:16:59.624Z,30.17
2018-11-04T03:19:27.464Z,26.67
2018-11-04T03:21:55.332Z,31.00
2018-11-04T03:24:23.204Z,29.37
2018-11-04T03:26:51.083Z,32.17
2018-11-04T03:29:19.115Z,28.17
2018-11-04T03:31:46.964Z,26.07
2018-11-04T03:34:15.855Z,26.17
2018-11-04T03:36:43.696Z,23.80
2018-11-04T03:39:11.895Z,28.50
2018-11-04T03:41:40.156Z,25.93
2018-11-04T03:44:08.034Z,22.53
2018-11-04T03:46:36.624Z,26.73
2018-11-04T03:49:04.500Z,24.20
2018-11-04T03:51:32.360Z,23.97
2018-11-04T03:54:00.225Z,25.17
2018-11-04T03:56:28.109Z,25.70
2018-11-04T03:58:55.955Z,24.70
2018-11-04T04:01:23.860Z,24.10
2018-11-04T04:03:51.713Z,23.97
2018-11-04T04:06:19.604Z,22.67
2018-11-04T04:08:47.671Z,26.03
2018-11-04T04:11:15.507Z,22.77
2018-11-04T04:13:43.365Z,24.80
2018-11-04T04:16:12.027Z,23.93
2018-11-04T04:18:40.648Z,27.70
2018-11-04T04:21:10.204Z,26.73
2018-11-04T04:23:39.577Z,26.13
2018-11-04T04:26:08.460Z,28.43
2018-11-04T04:28:36.326Z,22.07
2018-11-04T04:31:04.331Z,27.00
2018-11-04T04:33:32.494Z,24.73
2018-11-04T04:36:00.412Z,21.30
2018-11-04T04:38:28.252Z,26.17
2018-11-04T04:40:56.206Z,24.50
2018-11-04T04:43:24.040Z,27.33
2018-11-04T04:45:52.513Z,29.70
2018-11-04T04:48:20.395Z,24.93
2018-11-04T04:50:48.236Z,20.93
2018-11-04T04:53:16.072Z,23.83
2018-11-04T04:55:43.956Z,26.73
2018-11-04T04:58:12.312Z,24.50
2018-11-04T05:00:40.576Z,24.70
2018-11-04T05:03:08.808Z,22.03
2018-11-04T05:05:37.315Z,24.43
2018-11-04T05:08:05.925Z,25.67
2018-11-04T05:10:34.559Z,26.43
2018-11-04T05:13:03.126Z,21.40
2018-11-04T05:15:31.413Z,24.07
2018-11-04T05:18:00.051Z,18.70
2018-11-04T05:20:28.634Z,24.70
2018-11-04T05:22:57.151Z,24.63
2018-11-04T05:25:25.839Z,27.37
2018-11-04T05:27:54.422Z,23.77
2018-11-04T05:30:23.072Z,26.00
2018-11-04T05:32:51.656Z,25.07
2018-11-04T05:35:20.168Z,24.77
2018-11-04T05:37:48.823Z,23.53
2018-11-04T05:40:17.186Z,25.23
2018-11-04T05:42:45.032Z,23.67
2018-11-04T05:45:12.892Z,21.07
2018-11-04T05:47:41.364Z,23.13
2018-11-04T05:50:10.163Z,24.97
2018-11-04T05:52:38.651Z,20.83
2018-11-04T05:55:07.649Z,22.53
2018-11-04T05:57:36.062Z,22.57
2018-11-04T06:00:04.374Z,22.37
2018-11-04T06:02:33.035Z,24.43
2018-11-04T06:05:01.617Z,20.40
2018-11-04T06:07:30.020Z,23.10
2018-11-04T06:09:58.322Z,23.93
2018-11-04T06:12:26.930Z,23.77
2018-11-04T06:14:55.599Z,25.87
2018-11-04T06:17:24.206Z,24.57
2018-11-04T06:19:52.844Z,26.40
2018-11-04T06:22:20.704Z,25.80
2018-11-04T06:24:48.556Z,21.23
2018-11-04T06:27:16.400Z,27.13
2018-11-04T06:29:44.240Z,24.23
2018-11-04T06:32:12.171Z,25.07
2018-11-04T06:34:40.176Z,30.33
2018-11-04T06:37:08.012Z,23.57
2018-11-04T06:39:35.861Z,27.37
2018-11-04T06:42:03.868Z,29.03
2018-11-04T06:44:32.019Z,25.27
2018-11-04T06:46:59.954Z,23.80
2018-11-04T06:49:27.787Z,23.43
2018-11-04T06:51:55.631Z,22.43
2018-11-04T06:54:23.556Z,27.57
2018-11-04T06:56:51.398Z,24.67
2018-11-04T06:59:19.263Z,24.93
2018-11-04T07:01:47.898Z,25.27
2018-11-04T07:04:23.220Z,22.13
2018-11-04T07:06:51.823Z,21.90
2018-11-04T07:09:20.466Z,25.07
2018-11-04T07:11:49.382Z,24.40
2018-11-04T07:14:19.123Z,22.83
2018-11-04T07:16:47.519Z,21.03
2018-11-04T07:19:16.275Z,24.53
2018-11-04T07:21:44.814Z,23.47
2018-11-04T07:24:13.471Z,24.07
2018-11-04T07:26:42.136Z,19.37
2018-11-04T07:29:10.616Z,21.60
2018-11-04T07:31:39.170Z,20.90
2018-11-04T07:34:07.989Z,20.83
2018-11-04T07:36:36.454Z,22.47
2018-11-04T07:39:06.455Z,21.77
2018-11-04T07:41:35.098Z,26.07
2018-11-04T07:44:03.545Z,27.13
2018-11-04T07:46:32.196Z,25.07
2018-11-04T07:49:00.813Z,24.93
2018-11-04T07:51:29.472Z,26.47
2018-11-04T07:53:58.092Z,24.77
2018-11-04T07:56:26.742Z,26.30
2018-11-04T07:59:57.677Z,24.80
2018-11-04T08:02:26.131Z,26.53
2018-11-04T08:04:54.754Z,25.67
2018-11-04T08:07:23.179Z,30.93
2018-11-04T08:09:51.600Z,40.73
2018-11-04T08:12:19.851Z,33.83
2018-11-04T08:14:47.673Z,35.13
2018-11-04T08:17:16.219Z,35.13
2018-11-04T08:19:44.803Z,36.00
2018-11-04T08:22:12.640Z,40.90
2018-11-04T08:24:40.480Z,37.10
2018-11-04T08:27:08.331Z,36.80
2018-11-04T08:29:36.196Z,37.33
2018-11-04T08:32:04.648Z,37.47
2018-11-04T08:34:33.088Z,35.80
2018-11-04T08:37:01.700Z,35.20
2018-11-04T08:39:30.152Z,38.23
2018-11-04T08:41:57.978Z,38.83
2018-11-04T08:44:25.810Z,30.10
2018-11-04T08:46:53.907Z,31.23
2018-11-04T08:49:21.791Z,32.73
2018-11-04T08:51:49.745Z,40.00
2018-11-04T08:54:17.592Z,35.03
2018-11-04T08:56:45.475Z,35.20
2018-11-04T08:59:13.300Z,35.83
2018-11-04T09:01:41.134Z,37.77
2018-11-04T09:04:08.997Z,31.73
2018-11-04T09:06:36.864Z,32.07
2018-11-04T09:09:06.228Z,32.13
2018-11-04T09:11:34.125Z,29.97
2018-11-04T09:14:02.054Z,28.50
2018-11-04T09:16:30.012Z,27.33
2018-11-04T09:18:58.530Z,29.47
2018-11-04T09:21:27.226Z,30.43
2018-11-04T09:23:55.869Z,30.73
2018-11-04T09:26:23.787Z,36.53
2018-11-04T09:28:52.325Z,32.87
2018-11-04T09:31:20.214Z,32.23
2018-11-04T09:33:48.055Z,29.20
2018-11-04T09:36:16.788Z,30.27
2018-11-04T09:38:45.307Z,32.53
2018-11-04T09:41:13.992Z,34.20
2018-11-04T09:43:42.523Z,32.60
2018-11-04T09:46:11.163Z,28.57
2018-11-04T09:48:39.051Z,32.77
2018-11-04T09:51:06.899Z,28.67
2018-11-04T09:53:34.873Z,36.10
2018-11-04T09:56:03.555Z,31.57
2018-11-04T09:58:31.452Z,31.03
2018-11-04T10:00:59.338Z,30.00
2018-11-04T10:03:27.241Z,32.50
2018-11-04T10:05:55.733Z,31.93
2018-11-04T10:08:24.367Z,34.43
2018-11-04T10:10:52.806Z,34.83
2018-11-04T10:13:21.281Z,34.83
2018-11-04T10:15:49.669Z,32.57
2018-11-04T10:18:17.499Z,33.90
2018-11-04T10:20:46.427Z,36.70
2018-11-04T10:23:14.396Z,34.80
2018-11-04T10:25:42.366Z,34.33
2018-11-04T10:28:10.211Z,35.43
2018-11-04T10:30:38.041Z,36.23
2018-11-04T10:33:05.918Z,35.93
2018-11-04T10:35:34.257Z,36.17
2018-11-04T10:38:02.672Z,34.10
2018-11-04T10:40:31.145Z,36.80
2018-11-04T10:42:59.782Z,36.20
2018-11-04T10:45:28.203Z,37.63
2018-11-04T10:47:56.059Z,35.37
2018-11-04T10:50:23.909Z,40.57
2018-11-04T10:52:51.745Z,39.63
2018-11-04T10:55:20.402Z,41.17
2018-11-04T10:57:49.272Z,45.03
2018-11-04T11:00:22.322Z,45.03
2018-11-04T11:02:50.172Z,40.40
2018-11-04T11:05:18.018Z,41.87
2018-11-04T11:07:46.681Z,44.43
2018-11-04T11:10:14.515Z,38.23
2018-11-04T11:12:43.024Z,46.53
2018-11-04T11:15:11.992Z,43.30
2018-11-04T11:17:40.690Z,42.27
2018-11-04T11:20:09.703Z,43.23
2018-11-04T11:22:37.942Z,43.87
2018-11-04T11:25:06.639Z,39.30
2018-11-04T11:27:35.041Z,43.47
2018-11-04T11:30:03.642Z,44.27
2018-11-04T11:32:32.121Z,46.53
2018-11-04T11:35:00.889Z,39.23
2018-11-04T11:37:29.620Z,42.53
2018-11-04T11:39:58.247Z,43.80
2018-11-04T11:42:26.876Z,40.10
2018-11-04T11:44:55.513Z,40.30
2018-11-04T11:47:23.952Z,39.03
2018-11-04T11:49:52.568Z,42.17
2018-11-04T11:52:21.249Z,49.93
2018-11-04T11:54:49.133Z,45.00
2018-11-04T11:57:17.224Z,40.27
2018-11-04T11:59:45.723Z,41.27
2018-11-04T12:02:13.782Z,39.63
2018-11-04T12:04:42.197Z,46.77
2018-11-04T12:07:10.054Z,43.97
2018-11-04T12:09:38.488Z,51.97
2018-11-04T12:12:06.956Z,39.93
2018-11-04T12:14:34.793Z,48.37
2018-11-04T12:17:02.632Z,43.27
2018-11-04T12:19:31.093Z,41.23
2018-11-04T12:21:59.703Z,41.43
2018-11-04T12:24:28.176Z,47.00
2018-11-04T12:26:56.026Z,41.73
2018-11-04T12:29:23.916Z,43.53
2018-11-04T12:31:52.291Z,47.53
2018-11-04T12:34:20.919Z,44.93
2018-11-04T12:36:49.382Z,40.90
2018-11-04T12:39:17.795Z,42.83
2018-11-04T12:41:45.813Z,42.07
2018-11-04T12:44:14.305Z,39.40
2018-11-04T12:46:42.148Z,44.00
2018-11-04T12:49:10.798Z,39.47
2018-11-04T12:51:38.640Z,44.90
2018-11-04T12:54:06.627Z,42.77
2018-11-04T12:56:34.482Z,41.00
2018-11-04T12:59:02.312Z,41.80
2018-11-04T13:01:30.160Z,41.37
2018-11-04T13:03:58.029Z,46.33
2018-11-04T13:06:26.115Z,43.40
2018-11-04T13:08:54.583Z,41.40
2018-11-04T13:11:23.326Z,41.53
2018-11-04T13:13:51.460Z,42.20
2018-11-04T13:16:20.109Z,39.27
2018-11-04T13:18:48.160Z,39.97
2018-11-04T13:21:16.844Z,39.37
2018-11-04T13:23:45.399Z,38.83
2018-11-04T13:26:13.816Z,38.87
2018-11-04T13:28:42.340Z,43.23
2018-11-04T13:31:10.940Z,37.50
2018-11-04T13:33:39.568Z,42.27
2018-11-04T13:36:08.098Z,41.30
2018-11-04T13:38:36.708Z,36.37
2018-11-04T13:41:05.367Z,39.83
2018-11-04T13:43:33.730Z,43.57
2018-11-04T13:46:02.219Z,42.30
2018-11-04T13:48:30.152Z,39.97
2018-11-04T13:50:58.013Z,44.07
2018-11-04T13:53:26.672Z,35.33
2018-11-04T13:55:55.143Z,41.20
2018-11-04T13:58:23.107Z,38.67
2018-11-04T14:00:51.633Z,39.90
2018-11-04T14:03:20.292Z,35.70
2018-11-04T14:05:48.694Z,38.60
2018-11-04T14:08:17.346Z,41.77
2018-11-04T14:10:46.060Z,39.40
2018-11-04T14:13:14.666Z,38.47
2018-11-04T14:15:42.986Z,44.17
2018-11-04T14:18:11.469Z,43.63
2018-11-04T14:20:39.699Z,36.90
2018-11-04T14:23:07.951Z,44.03
2018-11-04T14:25:36.264Z,38.40
2018-11-04T14:28:04.851Z,39.53
2018-11-04T14:30:33.278Z,40.27
2018-11-04T14:33:01.542Z,42.13
2018-11-04T14:35:29.976Z,41.37
2018-11-04T14:37:58.783Z,35.77
2018-11-04T14:40:27.448Z,34.07
2018-11-04T14:42:56.001Z,42.97
2018-11-04T14:45:24.733Z,38.50
2018-11-04T14:47:53.364Z,39.83
2018-11-04T14:50:21.330Z,37.43
2018-11-04T14:52:49.578Z,36.13
2018-11-04T14:55:17.450Z,37.70
2018-11-04T14:57:45.323Z,37.93
2018-11-04T15:00:14.472Z,38.73
2018-11-04T15:02:42.599Z,37.47
2018-11-04T15:05:11.157Z,35.03
2018-11-04T15:07:39.633Z,41.83
2018-11-04T15:10:08.666Z,41.20
2018-11-04T15:12:37.219Z,37.63
2018-11-04T15:15:06.324Z,34.93
2018-11-04T15:17:34.839Z,38.53
2018-11-04T15:20:03.502Z,40.47
2018-11-04T15:22:32.096Z,36.60
2018-11-04T15:24:59.986Z,38.60
2018-11-04T15:27:28.415Z,37.20
2018-11-04T15:29:57.205Z,36.27
2018-11-04T15:32:25.683Z,40.07
2018-11-04T15:34:53.627Z,42.67
2018-11-04T15:37:21.411Z,41.50
2018-11-04T15:39:49.394Z,37.87
2018-11-04T15:42:18.090Z,37.20
2018-11-04T15:44:46.132Z,43.47
2018-11-04T15:47:15.091Z,43.00
2018-11-04T15:49:43.020Z,36.13
2018-11-04T15:52:11.660Z,38.23
2018-11-04T15:54:40.286Z,38.00
2018-11-04T15:57:14.189Z,39.70
2018-11-04T15:59:42.617Z,40.30
2018-11-04T16:02:11.288Z,45.33
2018-11-04T16:04:44.539Z,40.07
2018-11-04T16:07:08.557Z,39.70
2018-11-04T16:09:37.804Z,42.63
2018-11-04T16:12:06.417Z,38.70
2018-11-04T16:14:35.042Z,38.97
2018-11-04T16:17:03.688Z,44.53
2018-11-04T16:19:31.691Z,39.67
2018-11-04T16:22:00.475Z,37.70
2018-11-04T16:24:29.120Z,37.67
2018-11-04T16:26:57.691Z,44.63
2018-11-04T16:29:25.528Z,40.17
2018-11-04T16:31:53.384Z,44.83
2018-11-04T16:34:21.264Z,42.70
2018-11-04T16:36:49.133Z,41.97
2018-11-04T16:39:17.692Z,43.37
2018-11-04T16:41:46.275Z,42.00
2018-11-04T16:44:14.859Z,45.77
2018-11-04T16:46:43.392Z,42.37
2018-11-04T16:49:11.792Z,45.77
2018-11-04T16:51:39.682Z,49.47
2018-11-04T16:54:08.529Z,49.87
2018-11-04T16:56:37.403Z,45.70
2018-11-04T16:59:06.172Z,47.07
2018-11-04T17:01:34.603Z,46.20
2018-11-04T17:04:03.145Z,52.90
2018-11-04T17:06:31.937Z,47.83
2018-11-04T17:09:00.307Z,44.87
2018-11-04T17:11:28.642Z,45.70
2018-11-04T17:13:56.476Z,48.17
2018-11-04T17:16:24.664Z,41.03
2018-11-04T17:18:53.107Z,43.17
2018-11-04T17:21:21.748Z,46.10
2018-11-04T17:23:50.299Z,41.60
2018-11-04T17:26:18.962Z,47.10
2018-11-04T17:28:47.602Z,52.60
2018-11-04T17:31:16.118Z,45.17
2018-11-04T17:33:43.955Z,43.17
2018-11-04T17:36:11.972Z,47.03
2018-11-04T17:38:40.255Z,46.60
2018-11-04T17:41:09.149Z,45.73
2018-11-04T17:43:37.736Z,41.80
2018-11-04T17:46:06.167Z,47.50
2018-11-04T17:48:34.546Z,47.20
2018-11-04T17:51:02.658Z,43.73
2018-11-04T17:53:30.528Z,47.17
2018-11-04T17:55:58.445Z,51.03
2018-11-04T17:58:26.296Z,46.53
2018-11-04T18:00:54.135Z,51.10
2018-11-04T18:03:21.977Z,48.30
2018-11-04T18:05:49.804Z,48.83
2018-11-04T18:08:17.659Z,44.63
2018-11-04T18:10:46.228Z,50.17
2018-11-04T18:13:14.882Z,50.77
2018-11-04T18:15:43.509Z,44.50
2018-11-04T18:18:11.916Z,49.07
2018-11-04T18:20:39.809Z,48.87
2018-11-04T18:23:07.660Z,46.13
2018-11-04T18:25:35.481Z,44.63
2018-11-04T18:28:04.291Z,50.93
2018-11-04T18:30:32.783Z,47.70
2018-11-04T18:33:00.630Z,50.53
2018-11-04T18:35:28.593Z,49.63
2018-11-04T18:37:56.428Z,52.03
2018-11-04T18:40:24.327Z,51.00
2018-11-04T18:42:52.175Z,48.50
2018-11-04T18:45:20.156Z,47.30
2018-11-04T18:47:47.991Z,46.60
2018-11-04T18:50:17.161Z,44.93
2018-11-04T18:52:45.478Z,48.40
2018-11-04T18:55:13.656Z,41.77
2018-11-04T18:57:42.456Z,44.27
2018-11-04T19:00:13.091Z,46.70
2018-11-04T19:02:40.926Z,49.97
2018-11-04T19:05:09.506Z,46.03
2018-11-04T19:07:37.663Z,46.83
2018-11-04T19:10:06.280Z,42.90
2018-11-04T19:12:34.172Z,48.40
2018-11-04T19:15:02.096Z,47.67
2018-11-04T19:17:30.562Z,47.53
2018-11-04T19:19:59.004Z,47.70
2018-11-04T19:22:26.851Z,48.83
2018-11-04T19:24:54.705Z,46.23
2018-11-04T19:27:22.571Z,48.03
2018-11-04T19:29:51.183Z,41.47
2018-11-04T19:32:19.884Z,46.07
2018-11-04T19:34:48.459Z,44.43
2018-11-04T19:37:16.532Z,46.40
2018-11-04T19:39:45.023Z,46.87
2018-11-04T19:42:12.902Z,42.67
2018-11-04T19:44:41.439Z,44.20
2018-11-04T19:47:09.878Z,43.10
2018-11-04T19:49:38.513Z,44.10
2018-11-04T19:52:07.149Z,46.27
2018-11-04T19:54:35.029Z,47.60
2018-11-04T19:57:02.882Z,47.13
2018-11-04T19:59:30.722Z,44.07
2018-11-04T20:01:58.579Z,47.17
2018-11-04T20:04:26.455Z,45.70
2018-11-04T20:06:54.295Z,47.53
2018-11-04T20:09:22.135Z,44.07
2018-11-04T20:11:49.976Z,48.70
2018-11-04T20:14:19.557Z,43.40
2018-11-04T20:16:48.582Z,43.67
2018-11-04T20:19:21.648Z,46.57
2018-11-04T20:21:49.788Z,49.00
2018-11-04T20:24:22.868Z,49.73
2018-11-04T20:26:50.990Z,47.80
2018-11-04T20:29:18.876Z,48.93
2018-11-04T20:31:51.771Z,45.80
2018-11-04T20:34:20.110Z,44.13
2018-11-04T20:36:48.743Z,44.80
2018-11-04T20:39:22.187Z,43.10
2018-11-04T20:41:50.733Z,42.53
2018-11-04T20:44:19.104Z,43.87
2018-11-04T20:46:47.786Z,44.33
2018-11-04T20:49:21.539Z,42.27
2018-11-04T20:51:50.202Z,40.83
2018-11-04T20:54:18.798Z,43.33
2018-11-04T20:56:51.866Z,41.17
2018-11-04T20:59:19.707Z,41.87
2018-11-04T21:01:47.598Z,41.27
2018-11-04T21:04:15.615Z,38.90
2018-11-04T21:06:43.452Z,45.40
2018-11-04T21:09:12.516Z,42.47
2018-11-04T21:11:40.422Z,46.63
2018-11-04T21:14:08.280Z,45.17
2018-11-04T21:16:37.019Z,44.50
2018-11-04T21:19:05.323Z,39.33
2018-11-04T21:21:34.013Z,47.07
2018-11-04T21:24:02.415Z,45.30
2018-11-04T21:26:30.842Z,44.77
2018-11-04T21:28:59.417Z,48.00
2018-11-04T21:31:27.726Z,42.00
2018-11-04T21:33:56.391Z,46.30
2018-11-04T21:36:25.696Z,45.77
2018-11-04T21:38:54.019Z,43.57
2018-11-04T21:41:22.237Z,44.70
2018-11-04T21:43:50.287Z,45.07
2018-11-04T21:46:18.175Z,50.33
2018-11-04T21:48:46.613Z,51.37
2018-11-04T21:51:14.633Z,50.57
2018-11-04T21:53:42.484Z,49.97
2018-11-04T21:56:10.795Z,57.23
2018-11-04T21:58:38.652Z,56.50
2018-11-04T22:01:07.619Z,56.43
2018-11-04T22:03:35.947Z,57.70
2018-11-04T22:06:03.781Z,51.60
2018-11-04T22:08:31.666Z,60.80
2018-11-04T22:10:59.500Z,62.03
2018-11-04T22:13:27.407Z,62.77
2018-11-04T22:15:55.966Z,56.27
2018-11-04T22:18:23.847Z,58.20
2018-11-04T22:20:51.739Z,62.50
2018-11-04T22:23:19.609Z,55.63
2018-11-04T22:25:47.471Z,56.53
2018-11-04T22:28:15.335Z,54.30
2018-11-04T22:30:43.247Z,54.03
2018-11-04T22:33:11.123Z,55.83
2018-11-04T22:35:38.974Z,54.23
2018-11-04T22:38:06.904Z,59.20
2018-11-04T22:40:34.751Z,53.80
2018-11-04T22:43:02.626Z,54.23
2018-11-04T22:45:31.084Z,53.03
2018-11-04T22:47:59.564Z,51.33
2018-11-04T22:50:28.209Z,49.73
2018-11-04T22:52:56.849Z,51.93
2018-11-04T22:55:25.252Z,52.63
2018-11-04T22:57:53.689Z,50.07
2018-11-04T23:00:26.840Z,54.03
2018-11-04T23:02:54.695Z,46.90
2018-11-04T23:05:28.068Z,44.73
2018-11-04T23:07:55.975Z,49.03
2018-11-04T23:10:23.843Z,52.20
2018-11-04T23:12:52.412Z,54.43
2018-11-04T23:15:21.039Z,50.57
2018-11-04T23:17:49.172Z,50.63
2018-11-04T23:20:17.011Z,48.60
2018-11-04T23:22:45.572Z,47.63
2018-11-04T23:25:14.690Z,53.70
2018-11-04T23:27:44.000Z,48.80
2018-11-04T23:30:14.212Z,50.53
2018-11-04T23:32:42.892Z,50.57
2018-11-04T23:35:12.034Z,52.10
2018-11-04T23:37:40.147Z,53.43
2018-11-04T23:40:08.601Z,44.70
2018-11-04T23:42:36.722Z,46.20
2018-11-04T23:45:04.683Z,49.47
2018-11-04T23:47:32.572Z,49.77
2018-11-04T23:50:00.980Z,47.93
2018-11-04T23:52:28.830Z,48.37
2018-11-04T23:54:56.692Z,45.63
2018-11-04T23:57:24.527Z,48.57
2018-11-04T23:59:52.376Z,48.23
